Time;durP1;ratioP1;P1;durP2;ratioP2;P2;SDS_P1;SDS_P2;PMS_P1;PMS_P2;Temp;Humidity;BMP_temperature;BMP_pressure;BME280_temperature;BME280_humidity;BME280_pressure;Samples;Min_cycle;Max_cycle;Signal;HPM_P1;HPM_P2
2023/03/20 00:00:28;;;;;;;1.98;1.17;;;7.30;99.90;;;;;;5003073;28;20061;-75
2023/03/20 00:02:54;;;;;;;1.63;0.93;;;7.40;99.90;;;;;;5003229;28;20042;-74
2023/03/20 00:05:22;;;;;;;2.17;1.00;;;7.40;99.90;;;;;;5003245;28;20054;-74
2023/03/20 00:07:49;;;;;;;3.55;2.00;;;7.40;99.90;;;;;;5003149;28;20034;-74
2023/03/20 00:10:16;;;;;;;3.67;0.95;;;7.40;99.90;;;;;;5002638;28;20562;-75
2023/03/20 00:12:43;;;;;;;4.40;1.23;;;7.40;99.90;;;;;;4984518;28;20068;-75
2023/03/20 00:15:19;;;;;;;1.75;0.95;;;7.40;99.90;;;;;;5002611;28;20056;-75
2023/03/20 00:17:44;;;;;;;2.13;0.82;;;7.40;99.90;;;;;;5001910;28;20060;-74
2023/03/20 00:20:15;;;;;;;2.00;0.75;;;7.40;99.90;;;;;;5002622;28;20501;-75
2023/03/20 00:22:40;;;;;;;3.03;0.98;;;7.40;99.90;;;;;;5003119;28;20049;-75
2023/03/20 00:25:08;;;;;;;1.48;1.00;;;7.40;99.90;;;;;;5001894;28;20044;-75
2023/03/20 00:27:34;;;;;;;1.58;0.80;;;7.40;99.90;;;;;;5018080;28;20322;-75
2023/03/20 00:29:59;;;;;;;7.82;1.67;;;7.40;99.90;;;;;;5006407;28;20411;-75
2023/03/20 00:32:25;;;;;;;3.00;1.15;;;7.50;99.90;;;;;;5022300;28;20078;-75
2023/03/20 00:34:51;;;;;;;1.63;0.95;;;7.40;99.90;;;;;;5006756;28;20034;-75
2023/03/20 00:37:16;;;;;;;2.40;0.85;;;7.50;99.90;;;;;;5006643;28;20034;-74
2023/03/20 00:39:42;;;;;;;1.55;0.90;;;7.50;99.90;;;;;;5006462;28;20906;-75
2023/03/20 00:42:21;;;;;;;3.50;0.95;;;7.50;99.90;;;;;;5004983;28;20054;-75
2023/03/20 00:44:53;;;;;;;2.67;0.82;;;7.50;99.90;;;;;;5007049;28;20085;-74
2023/03/20 00:47:22;;;;;;;0.95;0.55;;;7.50;99.90;;;;;;4988185;28;20049;-75
2023/03/20 00:49:50;;;;;;;1.85;0.90;;;7.50;99.90;;;;;;5006464;28;20045;-75
2023/03/20 00:52:17;;;;;;;1.65;1.08;;;7.50;99.90;;;;;;4988747;28;20049;-74
2023/03/20 00:54:43;;;;;;;3.15;1.58;;;7.50;99.90;;;;;;5006563;28;20046;-75
2023/03/20 00:57:13;;;;;;;2.90;1.30;;;7.50;99.90;;;;;;4987641;28;20052;-75
2023/03/20 00:59:46;;;;;;;2.13;1.02;;;7.50;99.90;;;;;;4989157;28;20128;-74
2023/03/20 01:02:12;;;;;;;1.75;0.85;;;7.60;99.90;;;;;;4988609;28;20069;-75
2023/03/20 01:04:40;;;;;;;2.58;0.80;;;7.60;99.90;;;;;;4988605;28;20079;-74
2023/03/20 01:07:09;;;;;;;1.15;0.77;;;7.60;99.90;;;;;;4987805;28;20056;-75
2023/03/20 01:09:35;;;;;;;1.73;0.90;;;7.60;99.90;;;;;;5006579;28;20057;-75
2023/03/20 01:12:01;;;;;;;1.88;0.93;;;7.60;99.90;;;;;;4984543;28;20050;-75
2023/03/20 01:14:27;;;;;;;2.45;1.10;;;7.60;99.90;;;;;;4986320;28;20502;-75
2023/03/20 01:16:53;;;;;;;1.52;1.00;;;7.60;99.90;;;;;;4985997;28;20211;-75
2023/03/20 01:19:18;;;;;;;3.58;1.30;;;7.60;99.90;;;;;;4984773;28;20034;-75
2023/03/20 01:21:44;;;;;;;3.03;1.00;;;7.60;99.90;;;;;;4986544;28;20054;-75
2023/03/20 01:24:09;;;;;;;4.47;0.95;;;7.60;99.90;;;;;;4985992;28;20496;-75
2023/03/20 01:26:41;;;;;;;2.30;0.90;;;7.60;99.90;;;;;;4984646;28;20054;-75
2023/03/20 01:29:20;;;;;;;2.50;0.90;;;7.70;99.90;;;;;;4985398;28;20494;-75
2023/03/20 01:31:46;;;;;;;4.85;1.20;;;7.60;99.90;;;;;;4984672;28;20086;-75
2023/03/20 01:34:12;;;;;;;2.22;1.55;;;7.60;99.90;;;;;;4985842;28;20038;-74
2023/03/20 01:36:38;;;;;;;3.10;1.40;;;7.70;99.90;;;;;;4967706;28;20053;-75
2023/03/20 01:39:04;;;;;;;1.17;0.95;;;7.60;99.90;;;;;;4985374;28;20042;-75
2023/03/20 01:41:31;;;;;;;2.60;1.08;;;7.70;99.90;;;;;;4984832;28;20446;-75
2023/03/20 01:44:00;;;;;;;2.40;1.17;;;7.60;99.90;;;;;;4985453;28;20038;-74
2023/03/20 01:46:28;;;;;;;1.88;1.05;;;7.70;99.90;;;;;;4984936;28;20047;-75
2023/03/20 01:49:04;;;;;;;2.65;1.25;;;7.60;99.90;;;;;;5017038;28;20038;-75
2023/03/20 01:51:31;;;;;;;2.17;1.17;;;7.60;99.90;;;;;;4984810;28;20495;-75
2023/03/20 01:54:17;;;;;;;3.20;1.88;;;7.70;99.90;;;;;;4986401;28;20461;-75
2023/03/20 01:56:55;;;;;;;3.15;1.00;;;7.70;99.90;;;;;;4985700;28;20125;-75
2023/03/20 01:59:32;;;;;;;2.67;1.20;;;7.70;99.90;;;;;;4985245;28;20038;-75
2023/03/20 02:01:58;;;;;;;5.05;1.20;;;7.70;99.90;;;;;;4984349;28;20057;-75
2023/03/20 02:04:29;;;;;;;4.97;1.10;;;7.70;99.90;;;;;;5057179;23;20141;-75
2023/03/20 02:06:55;;;;;;;3.40;1.52;;;7.70;99.90;;;;;;4964755;28;20093;-75
2023/03/20 02:09:21;;;;;;;2.60;1.23;;;7.70;99.90;;;;;;4966279;28;20085;-75
2023/03/20 02:11:47;;;;;;;2.33;1.30;;;7.70;99.90;;;;;;4966577;28;20090;-75
2023/03/20 02:14:13;;;;;;;8.65;1.35;;;7.70;99.90;;;;;;4980674;28;20057;-75
2023/03/20 02:16:39;;;;;;;3.35;1.52;;;7.70;99.90;;;;;;4965984;28;20532;-75
2023/03/20 02:19:16;;;;;;;5.28;1.63;;;7.70;99.90;;;;;;4966274;28;20134;-75
2023/03/20 02:22:10;;;;;;;3.80;1.45;;;7.70;99.90;;;;;;4966783;28;20050;-75
2023/03/20 02:24:42;;;;;;;3.78;2.22;;;7.70;99.90;;;;;;4968783;28;20152;-75
2023/03/20 02:27:11;;;;;;;7.85;1.67;;;7.70;99.90;;;;;;4965967;28;20049;-75
2023/03/20 02:30:02;;;;;;;1.98;1.38;;;7.70;99.90;;;;;;4965764;28;20298;-75
2023/03/20 02:33:04;;;;;;;2.85;1.48;;;7.70;99.90;;;;;;4965350;28;20051;-75
2023/03/20 02:35:52;;;;;;;4.95;1.38;;;7.70;99.90;;;;;;4965443;28;20081;-75
2023/03/20 02:38:41;;;;;;;3.55;1.10;;;7.70;99.90;;;;;;4964917;28;20050;-75
2023/03/20 02:41:34;;;;;;;5.88;1.55;;;7.70;99.90;;;;;;4966220;28;20039;-75
2023/03/20 02:44:22;;;;;;;5.22;1.85;;;7.70;99.90;;;;;;4947675;28;20057;-75
2023/03/20 02:47:04;;;;;;;2.83;1.48;;;7.70;99.90;;;;;;4965054;28;20145;-75
2023/03/20 02:49:48;;;;;;;;;;;7.70;99.90;;;;;;4966539;28;20427;-75
2023/03/20 02:52:32;;;;;;;2.85;1.23;;;7.70;99.90;;;;;;4996997;28;19926;-75
2023/03/20 02:55:15;;;;;;;12.63;1.75;;;7.70;99.90;;;;;;4966412;28;20050;-75
2023/03/20 02:57:55;;;;;;;2.13;0.82;;;7.70;99.90;;;;;;4965245;28;20101;-75
2023/03/20 03:00:28;;;;;;;3.28;1.63;;;7.70;99.90;;;;;;4964752;28;20376;-75
2023/03/20 03:03:12;;;;;;;2.08;1.30;;;7.70;99.90;;;;;;4965342;28;20396;-75
2023/03/20 03:06:03;;;;;;;1.83;1.30;;;7.70;99.90;;;;;;4964754;28;20125;-75
2023/03/20 03:08:36;;;;;;;2.38;1.15;;;7.70;99.90;;;;;;4997710;28;20043;-75
2023/03/20 03:11:06;;;;;;;2.20;0.82;;;7.70;99.90;;;;;;4965797;28;20046;-75
2023/03/20 03:13:36;;;;;;;4.05;0.90;;;7.70;99.90;;;;;;4965067;28;20049;-75
2023/03/20 03:16:09;;;;;;;1.85;1.40;;;7.70;99.90;;;;;;4964001;28;20070;-75
2023/03/20 03:18:36;;;;;;;2.90;1.13;;;7.70;99.90;;;;;;4965654;28;20058;-75
2023/03/20 03:21:04;;;;;;;1.65;1.17;;;7.70;99.90;;;;;;4996661;28;20050;-75
2023/03/20 03:23:44;;;;;;;2.83;1.20;;;7.70;99.90;;;;;;4965915;28;20047;-75
2023/03/20 03:26:31;;;;;;;2.53;1.30;;;7.70;99.90;;;;;;4965515;28;20042;-75
2023/03/20 03:29:02;;;;;;;3.00;1.75;;;7.70;99.90;;;;;;4964789;28;20043;-75
2023/03/20 03:31:29;;;;;;;3.92;2.00;;;7.70;99.90;;;;;;4966228;28;20090;-75
2023/03/20 03:33:57;;;;;;;3.00;1.40;;;7.80;99.90;;;;;;4965866;28;20075;-75
2023/03/20 03:36:38;;;;;;;3.90;1.52;;;7.70;99.90;;;;;;4948164;28;20118;-75
2023/03/20 03:39:35;;;;;;;6.60;1.67;;;7.70;99.90;;;;;;4964124;28;20085;-75
2023/03/20 03:42:22;;;;;;;2.08;1.30;;;7.70;99.90;;;;;;4993847;28;20051;-75
2023/03/20 03:45:06;;;;;;;3.70;1.38;;;7.80;99.90;;;;;;4944635;29;20122;-75
2023/03/20 03:47:35;;;;;;;3.40;1.50;;;7.70;99.90;;;;;;4958175;28;20058;-75
2023/03/20 03:50:13;;;;;;;2.78;1.58;;;7.70;99.90;;;;;;4963418;28;20051;-75
2023/03/20 03:52:40;;;;;;;4.03;1.98;;;7.70;99.90;;;;;;4965180;28;20533;-75
2023/03/20 03:55:15;;;;;;;3.47;1.92;;;7.70;99.90;;;;;;4965210;28;20124;-75
2023/03/20 03:57:45;;;;;;;4.80;2.15;;;7.70;99.90;;;;;;4962985;28;20710;-75
2023/03/20 04:00:16;;;;;;;6.63;2.08;;;7.70;99.90;;;;;;4963860;28;20049;-75
2023/03/20 04:02:44;;;;;;;6.80;2.00;;;7.70;99.90;;;;;;4968176;28;20051;-75
2023/03/20 04:05:11;;;;;;;5.10;2.05;;;7.70;99.90;;;;;;5003243;28;20452;-75
2023/03/20 04:07:37;;;;;;;4.20;1.95;;;7.70;99.90;;;;;;4992865;28;20125;-75
2023/03/20 04:10:03;;;;;;;4.10;2.20;;;7.70;99.90;;;;;;4992600;28;20571;-75
2023/03/20 04:12:43;;;;;;;5.35;1.98;;;7.70;99.90;;;;;;5010168;28;20256;-75
2023/03/20 04:15:09;;;;;;;3.97;2.50;;;7.70;99.90;;;;;;5010253;28;20560;-75
2023/03/20 04:17:35;;;;;;;3.17;1.60;;;7.70;99.90;;;;;;5010853;28;20056;-75
2023/03/20 04:20:02;;;;;;;5.88;2.60;;;7.70;99.90;;;;;;5010437;28;20042;-75
2023/03/20 04:22:27;;;;;;;5.65;2.58;;;7.70;99.90;;;;;;5010837;28;20052;-75
2023/03/20 04:24:53;;;;;;;8.90;2.58;;;7.70;99.90;;;;;;5025772;28;20042;-75
2023/03/20 04:27:19;;;;;;;5.40;2.00;;;7.70;99.90;;;;;;5009091;28;20137;-75
2023/03/20 04:29:45;;;;;;;7.57;2.90;;;7.70;99.90;;;;;;5010800;28;20054;-75
2023/03/20 04:32:11;;;;;;;4.95;2.53;;;7.70;99.90;;;;;;5010004;28;20053;-75
2023/03/20 04:34:37;;;;;;;6.03;2.92;;;7.70;99.90;;;;;;5010282;28;20045;-75
2023/03/20 04:37:04;;;;;;;9.10;2.33;;;7.60;99.90;;;;;;5010101;28;20108;-75
2023/03/20 04:39:30;;;;;;;4.90;2.53;;;7.70;99.90;;;;;;5010655;28;20048;-75
2023/03/20 04:41:56;;;;;;;3.72;1.77;;;7.60;99.90;;;;;;4992223;28;20111;-75
2023/03/20 04:44:21;;;;;;;6.72;2.80;;;7.60;99.90;;;;;;5025266;28;20042;-75
2023/03/20 04:46:47;;;;;;;5.93;2.38;;;7.60;99.90;;;;;;5010442;28;20064;-75
2023/03/20 04:49:12;;;;;;;4.13;2.67;;;7.60;99.90;;;;;;5009690;28;20046;-75
2023/03/20 04:51:38;;;;;;;5.72;2.00;;;7.60;99.90;;;;;;4992869;28;20049;-75
2023/03/20 04:54:03;;;;;;;8.70;2.33;;;7.60;99.90;;;;;;4992379;28;20050;-75
2023/03/20 04:56:29;;;;;;;5.05;2.47;;;7.60;99.90;;;;;;4992339;28;20057;-75
2023/03/20 04:58:54;;;;;;;5.97;2.47;;;7.60;99.90;;;;;;5010550;28;20132;-75
2023/03/20 05:01:21;;;;;;;7.80;2.80;;;7.60;99.90;;;;;;5008893;28;20050;-75
2023/03/20 05:03:47;;;;;;;5.88;2.10;;;7.60;99.90;;;;;;5009818;28;20212;-75
2023/03/20 05:06:12;;;;;;;3.38;2.25;;;7.60;99.90;;;;;;4992514;28;20608;-72
2023/03/20 05:08:38;;;;;;;4.43;2.28;;;7.60;99.90;;;;;;4992384;28;20041;-73
2023/03/20 05:11:04;;;;;;;4.25;2.20;;;7.60;99.90;;;;;;5009767;28;20029;-73
2023/03/20 05:13:29;;;;;;;5.57;2.20;;;7.60;99.90;;;;;;5008241;28;20046;-73
2023/03/20 05:15:55;;;;;;;5.15;2.30;;;7.60;99.90;;;;;;5006814;28;20037;-72
2023/03/20 05:18:21;;;;;;;6.80;2.92;;;7.60;99.90;;;;;;5006521;28;20058;-72
2023/03/20 05:20:48;;;;;;;4.85;1.88;;;7.50;99.90;;;;;;4989637;28;20064;-73
2023/03/20 05:23:14;;;;;;;8.48;3.28;;;7.60;99.90;;;;;;5006365;28;20050;-75
2023/03/20 05:25:39;;;;;;;10.23;2.72;;;7.50;99.90;;;;;;5006538;28;20040;-75
2023/03/20 05:28:05;;;;;;;7.03;3.30;;;7.50;99.90;;;;;;5020707;28;20104;-75
2023/03/20 05:30:31;;;;;;;6.70;2.78;;;7.50;99.90;;;;;;5006413;28;20100;-75
2023/03/20 05:32:56;;;;;;;7.28;2.88;;;7.60;99.90;;;;;;5007104;28;20113;-75
2023/03/20 05:35:22;;;;;;;5.57;2.70;;;7.50;99.90;;;;;;5006617;28;20554;-75
2023/03/20 05:37:47;;;;;;;10.32;2.63;;;7.50;99.90;;;;;;5006303;28;20482;-75
2023/03/20 05:40:15;;;;;;;7.82;3.10;;;7.50;99.90;;;;;;4988378;28;20660;-75
2023/03/20 05:42:41;;;;;;;10.48;3.03;;;7.50;99.90;;;;;;5005885;28;20042;-75
2023/03/20 05:45:07;;;;;;;5.85;3.05;;;7.50;99.90;;;;;;5006478;28;20052;-75
2023/03/20 05:47:33;;;;;;;9.10;3.15;;;7.50;99.90;;;;;;5003521;28;20054;-75
2023/03/20 05:49:59;;;;;;;5.78;2.55;;;7.50;99.90;;;;;;4987138;28;20577;-74
2023/03/20 05:52:25;;;;;;;6.38;2.63;;;7.50;99.90;;;;;;4987244;28;20052;-75
2023/03/20 05:54:51;;;;;;;9.50;3.30;;;7.50;99.90;;;;;;4998631;28;20042;-75
2023/03/20 05:57:16;;;;;;;8.95;2.97;;;7.50;99.90;;;;;;5005057;28;20048;-75
2023/03/20 05:59:43;;;;;;;8.77;3.10;;;7.50;99.90;;;;;;5006042;28;20042;-75
2023/03/20 06:02:09;;;;;;;11.50;3.97;;;7.50;99.90;;;;;;4988369;28;20053;-75
2023/03/20 06:04:36;;;;;;;7.75;2.75;;;7.50;99.90;;;;;;4987680;28;20122;-75
2023/03/20 06:07:03;;;;;;;8.43;3.42;;;7.50;99.90;;;;;;5005274;28;20672;-75
2023/03/20 06:09:28;;;;;;;8.80;4.00;;;7.50;99.90;;;;;;5005880;28;20081;-77
2023/03/20 06:11:55;;;;;;;7.15;3.08;;;7.50;99.90;;;;;;5003867;28;20073;-75
2023/03/20 06:14:21;;;;;;;8.10;3.70;;;7.50;99.90;;;;;;5004472;28;20108;-74
2023/03/20 06:16:46;;;;;;;6.22;3.42;;;7.50;99.90;;;;;;5006067;28;20493;-75
2023/03/20 06:19:12;;;;;;;8.02;3.45;;;7.50;99.90;;;;;;5005633;28;20045;-75
2023/03/20 06:21:37;;;;;;;6.32;2.72;;;7.50;99.90;;;;;;5005962;28;20049;-75
2023/03/20 06:24:03;;;;;;;6.68;3.67;;;7.50;99.90;;;;;;5004581;28;20559;-75
2023/03/20 06:26:29;;;;;;;12.10;3.55;;;7.50;99.90;;;;;;5004921;28;20046;-75
2023/03/20 06:28:54;;;;;;;10.30;3.40;;;7.50;99.90;;;;;;5006393;28;20145;-75
2023/03/20 06:31:20;;;;;;;7.43;3.10;;;7.50;99.90;;;;;;5016341;28;20053;-75
2023/03/20 06:33:46;;;;;;;6.25;2.72;;;7.50;99.90;;;;;;5014530;28;20273;-76
2023/03/20 06:36:12;;;;;;;7.32;3.20;;;7.50;99.90;;;;;;5005567;28;20052;-75
2023/03/20 06:38:37;;;;;;;7.85;3.28;;;7.50;99.90;;;;;;4987626;28;20057;-76
2023/03/20 06:41:03;;;;;;;7.43;3.17;;;7.50;99.90;;;;;;5005560;28;20053;-76
2023/03/20 06:43:29;;;;;;;9.95;4.10;;;7.60;99.90;;;;;;4999295;28;20056;-76
2023/03/20 06:45:54;;;;;;;5.82;3.00;;;7.60;99.90;;;;;;5002581;28;20552;-75
2023/03/20 06:48:21;;;;;;;5.13;3.00;;;7.60;99.90;;;;;;4984280;28;20264;-75
2023/03/20 06:50:50;;;;;;;6.45;2.42;;;7.60;99.90;;;;;;5002859;28;20045;-77
2023/03/20 06:53:16;;;;;;;8.43;3.10;;;7.60;99.90;;;;;;4986715;28;20053;-76
2023/03/20 06:55:45;;;;;;;8.77;3.08;;;7.60;99.90;;;;;;4985445;28;20046;-79
2023/03/20 06:58:10;;;;;;;5.45;2.72;;;7.60;99.90;;;;;;5002221;28;20049;-77
2023/03/20 07:00:36;;;;;;;6.13;2.70;;;7.60;99.90;;;;;;5004417;28;20663;-77
2023/03/20 07:03:03;;;;;;;6.18;2.88;;;7.60;99.90;;;;;;5022314;28;20045;-77
2023/03/20 07:05:28;;;;;;;6.30;3.70;;;7.60;99.90;;;;;;5003669;28;20292;-77
2023/03/20 07:07:54;;;;;;;5.95;2.15;;;7.70;99.90;;;;;;5004544;28;20506;-77
2023/03/20 07:10:20;;;;;;;9.25;3.60;;;7.70;99.90;;;;;;5004006;28;20073;-77
2023/03/20 07:12:45;;;;;;;5.30;3.20;;;7.70;99.90;;;;;;5003506;28;20436;-77
2023/03/20 07:15:11;;;;;;;6.25;2.70;;;7.80;99.90;;;;;;5004401;28;20663;-77
2023/03/20 07:17:37;;;;;;;6.13;2.65;;;7.70;99.90;;;;;;5004050;28;20124;-77
2023/03/20 07:20:03;;;;;;;7.85;2.78;;;7.80;99.90;;;;;;5003824;28;20073;-77
2023/03/20 07:22:32;;;;;;;7.35;3.47;;;7.80;99.90;;;;;;5004457;28;20413;-77
2023/03/20 07:24:58;;;;;;;7.40;3.00;;;7.80;99.90;;;;;;5004629;28;20042;-77
2023/03/20 07:27:25;;;;;;;5.97;2.92;;;7.80;99.90;;;;;;5003316;28;20030;-78
2023/03/20 07:29:51;;;;;;;9.35;3.30;;;7.90;99.90;;;;;;5004751;28;20046;-77
2023/03/20 07:32:16;;;;;;;9.43;3.38;;;7.80;99.90;;;;;;5003710;28;20065;-77
2023/03/20 07:34:42;;;;;;;9.10;2.85;;;7.90;99.90;;;;;;4995702;28;20077;-78
2023/03/20 07:37:08;;;;;;;6.70;3.42;;;7.90;99.90;;;;;;5002945;28;20482;-77
2023/03/20 07:39:33;;;;;;;10.20;3.50;;;7.90;99.90;;;;;;5003404;28;20037;-77
2023/03/20 07:41:59;;;;;;;7.68;3.42;;;7.90;99.90;;;;;;5002839;28;20571;-77
2023/03/20 07:44:24;;;;;;;8.68;3.58;;;8.00;99.90;;;;;;5003675;28;20080;-77
2023/03/20 07:46:50;;;;;;;5.57;3.10;;;8.00;99.90;;;;;;5003177;28;20041;-77
2023/03/20 07:49:17;;;;;;;10.73;3.85;;;8.00;99.90;;;;;;4993233;28;20441;-77
2023/03/20 07:51:44;;;;;;;5.53;2.83;;;8.00;99.90;;;;;;5000712;28;20065;-77
2023/03/20 07:54:10;;;;;;;7.35;2.95;;;8.00;99.90;;;;;;5003516;28;20046;-77
2023/03/20 07:56:35;;;;;;;5.45;2.38;;;8.00;99.90;;;;;;4984896;28;20128;-77
2023/03/20 07:59:01;;;;;;;6.85;3.28;;;8.00;99.90;;;;;;4985938;28;20117;-77
2023/03/20 08:01:27;;;;;;;6.63;3.42;;;8.00;99.90;;;;;;5004000;28;20042;-77
2023/03/20 08:03:53;;;;;;;7.32;2.72;;;8.10;99.90;;;;;;5003306;28;20545;-77
2023/03/20 08:06:18;;;;;;;8.95;3.33;;;8.10;99.90;;;;;;4995337;28;20133;-77
2023/03/20 08:08:44;;;;;;;9.00;3.00;;;8.10;99.90;;;;;;4969209;28;20560;-77
2023/03/20 08:11:10;;;;;;;4.68;2.58;;;8.20;99.90;;;;;;5001951;28;20268;-77
2023/03/20 08:13:36;;;;;;;7.72;3.05;;;8.20;99.90;;;;;;4986327;28;20034;-77
2023/03/20 08:16:02;;;;;;;8.98;3.50;;;8.20;99.90;;;;;;4985511;28;20042;-78
2023/03/20 08:18:28;;;;;;;8.13;3.00;;;8.20;99.90;;;;;;4985852;28;20080;-77
2023/03/20 08:20:54;;;;;;;8.75;3.05;;;8.20;99.90;;;;;;5002765;28;20042;-77
2023/03/20 08:23:20;;;;;;;7.22;2.83;;;8.30;99.90;;;;;;5002386;28;20517;-77
2023/03/20 08:25:49;;;;;;;8.73;3.28;;;8.30;99.90;;;;;;4986738;28;20050;-77
2023/03/20 08:28:16;;;;;;;7.60;3.22;;;8.40;99.90;;;;;;4991089;28;20519;-76
2023/03/20 08:30:41;;;;;;;9.98;3.10;;;8.40;99.90;;;;;;5003544;28;20433;-76
2023/03/20 08:33:07;;;;;;;9.68;3.22;;;8.40;99.90;;;;;;5008421;28;20350;-76
2023/03/20 08:35:33;;;;;;;5.10;3.05;;;8.40;99.90;;;;;;4984500;28;20042;-77
2023/03/20 08:37:59;;;;;;;5.43;2.55;;;8.50;99.90;;;;;;4990474;28;20046;-76
2023/03/20 08:40:24;;;;;;;6.72;2.83;;;8.50;99.90;;;;;;4986170;28;20238;-76
2023/03/20 08:42:50;;;;;;;5.43;2.60;;;8.50;99.90;;;;;;5018352;28;20048;-77
2023/03/20 08:45:15;;;;;;;9.32;2.95;;;8.50;99.90;;;;;;5018802;28;20120;-76
2023/03/20 08:47:41;;;;;;;9.23;3.47;;;8.60;99.90;;;;;;5003116;28;20052;-77
2023/03/20 08:50:08;;;;;;;9.43;3.38;;;8.60;99.90;;;;;;5020954;28;20077;-76
2023/03/20 08:52:34;;;;;;;7.82;4.15;;;8.60;99.90;;;;;;5009039;28;20049;-77
2023/03/20 08:54:59;;;;;;;11.45;3.75;;;8.70;99.90;;;;;;5015013;28;20046;-78
2023/03/20 08:57:26;;;;;;;8.80;4.00;;;8.70;99.90;;;;;;5012033;28;20140;-76
2023/03/20 08:59:51;;;;;;;6.57;3.67;;;8.80;99.90;;;;;;4989376;28;20041;-77
2023/03/20 09:02:17;;;;;;;5.82;2.53;;;8.80;99.90;;;;;;5006258;28;20041;-76
2023/03/20 09:04:42;;;;;;;9.73;3.45;;;8.80;99.90;;;;;;4993917;28;20064;-76
2023/03/20 09:07:08;;;;;;;8.07;3.30;;;8.80;99.90;;;;;;5004945;28;20030;-78
2023/03/20 09:09:33;;;;;;;8.45;3.35;;;8.90;99.90;;;;;;5006467;28;20049;-75
2023/03/20 09:11:59;;;;;;;8.77;3.42;;;8.90;99.90;;;;;;5008809;28;20098;-74
2023/03/20 09:14:26;;;;;;;10.40;2.85;;;8.90;99.90;;;;;;5000546;28;20038;-75
2023/03/20 09:16:53;;;;;;;6.70;2.78;;;9.00;99.90;;;;;;5006370;28;20398;-75
2023/03/20 09:19:19;;;;;;;5.60;2.90;;;9.00;99.90;;;;;;5005305;28;20046;-74
2023/03/20 09:21:45;;;;;;;5.38;2.95;;;9.00;99.90;;;;;;4988426;28;20049;-74
2023/03/20 09:24:11;;;;;;;6.97;3.08;;;9.00;99.90;;;;;;4992164;28;20033;-74
2023/03/20 09:26:37;;;;;;;5.45;2.33;;;9.10;99.90;;;;;;4987198;28;20056;-75
2023/03/20 09:29:04;;;;;;;4.72;2.17;;;9.10;99.90;;;;;;5009875;28;20054;-74
2023/03/20 09:31:30;;;;;;;7.20;2.47;;;9.20;99.90;;;;;;5014644;28;20048;-76
2023/03/20 09:33:56;;;;;;;7.32;2.95;;;9.20;99.90;;;;;;4998561;28;20231;-74
2023/03/20 09:36:21;;;;;;;5.57;2.80;;;9.20;99.90;;;;;;4991997;28;20049;-74
2023/03/20 09:38:47;;;;;;;7.03;3.05;;;9.20;99.90;;;;;;4997061;28;20042;-75
2023/03/20 09:41:21;;;;;;;6.30;3.13;;;9.20;99.90;;;;;;5000576;28;20046;-74
2023/03/20 09:44:12;;;;;;;13.30;2.63;;;9.20;99.90;;;;;;5017458;28;20176;-74
2023/03/20 09:46:54;;;;;;;4.63;2.45;;;9.20;99.90;;;;;;4983004;28;20046;-74
2023/03/20 09:49:30;;;;;;;3.85;2.17;;;9.30;99.90;;;;;;5000844;28;20080;-74
2023/03/20 09:51:56;;;;;;;6.38;2.40;;;9.20;99.90;;;;;;4988449;28;20422;-74
2023/03/20 09:54:30;;;;;;;6.00;2.33;;;9.30;99.90;;;;;;4987969;28;20064;-74
2023/03/20 09:56:56;;;;;;;5.53;1.92;;;9.30;99.90;;;;;;4990309;28;20038;-74
2023/03/20 09:59:25;;;;;;;3.08;2.08;;;9.30;99.90;;;;;;5007625;28;20050;-74
2023/03/20 10:01:59;;;;;;;6.78;2.65;;;9.40;99.90;;;;;;5008570;28;20319;-74
2023/03/20 10:04:28;;;;;;;4.93;2.22;;;9.40;99.90;;;;;;5005569;28;20482;-73
2023/03/20 10:06:54;;;;;;;5.22;2.40;;;9.40;99.90;;;;;;5019296;28;20046;-74
2023/03/20 10:09:25;;;;;;;5.82;1.98;;;9.40;99.90;;;;;;5005074;28;20148;-74
2023/03/20 10:12:21;;;;;;;5.38;2.17;;;9.40;99.90;;;;;;4986831;28;20061;-74
2023/03/20 10:15:13;;;;;;;3.42;1.95;;;9.30;99.90;;;;;;4971677;28;20653;-74
2023/03/20 10:17:50;;;;;;;7.13;1.87;;;9.30;99.90;;;;;;5013307;28;20049;-74
2023/03/20 10:20:35;;;;;;;4.50;2.47;;;9.20;99.90;;;;;;5007470;28;20280;-74
2023/03/20 10:23:27;;;;;;;3.47;2.00;;;9.20;99.90;;;;;;5024064;28;20038;-75
2023/03/20 10:26:18;;;;;;;6.90;1.88;;;9.30;99.90;;;;;;4996056;28;20423;-74
2023/03/20 10:29:12;;;;;;;4.50;2.10;;;9.30;99.90;;;;;;5004582;28;20132;-74
2023/03/20 10:31:50;;;;;;;6.22;2.47;;;9.30;99.90;;;;;;4996272;28;20111;-74
2023/03/20 10:34:39;;;;;;;4.53;1.75;;;9.30;99.90;;;;;;5003489;28;20038;-74
2023/03/20 10:37:38;;;;;;;2.97;1.55;;;9.30;99.90;;;;;;5009873;28;20054;-74
2023/03/20 10:40:13;;;;;;;4.13;1.70;;;9.30;99.90;;;;;;4987353;28;20085;-74
2023/03/20 10:42:42;;;;;;;5.25;2.05;;;9.30;99.90;;;;;;4987896;28;20349;-76
2023/03/20 10:45:16;;;;;;;6.60;1.52;;;9.30;99.90;;;;;;5013095;28;20049;-72
2023/03/20 10:47:46;;;;;;;2.22;1.80;;;9.30;99.90;;;;;;5004942;28;20042;-73
2023/03/20 10:50:23;;;;;;;3.78;1.58;;;9.40;99.90;;;;;;5004273;28;20044;-74
2023/03/20 10:52:52;;;;;;;6.03;2.10;;;9.40;99.90;;;;;;5004344;28;20584;-73
2023/03/20 10:55:22;;;;;;;3.58;1.30;;;9.40;99.90;;;;;;4986414;28;20045;-73
2023/03/20 10:58:01;;;;;;;2.92;1.58;;;9.40;99.90;;;;;;4986069;28;20125;-74
2023/03/20 11:00:27;;;;;;;4.30;1.63;;;9.40;99.90;;;;;;5004814;28;20072;-74
2023/03/20 11:02:53;;;;;;;6.00;2.38;;;9.40;99.90;;;;;;5004328;28;20402;-74
2023/03/20 11:05:30;;;;;;;2.97;1.52;;;9.40;99.90;;;;;;4986872;28;20061;-73
2023/03/20 11:08:11;;;;;;;4.93;1.65;;;9.50;99.90;;;;;;4987963;28;20041;-74
2023/03/20 11:10:38;;;;;;;2.58;1.98;;;9.50;99.90;;;;;;4986151;28;20041;-74
2023/03/20 11:13:31;;;;;;;3.88;1.90;;;9.50;99.90;;;;;;4985444;28;20133;-74
2023/03/20 11:16:06;;;;;;;4.18;1.88;;;9.50;99.90;;;;;;5004540;28;20057;-74
2023/03/20 11:18:33;;;;;;;2.55;2.25;;;9.40;99.90;;;;;;5004063;28;20046;-74
2023/03/20 11:21:01;;;;;;;3.38;2.47;;;9.40;99.90;;;;;;4987271;28;20108;-73
2023/03/20 11:23:31;;;;;;;3.33;1.73;;;9.30;99.90;;;;;;5004436;28;20046;-74
2023/03/20 11:26:00;;;;;;;4.05;1.80;;;9.30;99.90;;;;;;4986497;28;20493;-74
2023/03/20 11:28:33;;;;;;;5.50;1.98;;;9.30;99.90;;;;;;4987247;28;20136;-74
2023/03/20 11:31:01;;;;;;;3.35;1.70;;;9.20;99.90;;;;;;5003995;28;20197;-74
2023/03/20 11:33:28;;;;;;;9.35;2.15;;;9.20;99.90;;;;;;5004565;28;20089;-73
2023/03/20 11:35:56;;;;;;;3.95;2.03;;;9.20;99.90;;;;;;4986199;28;20046;-74
2023/03/20 11:38:22;;;;;;;2.17;1.35;;;9.20;99.90;;;;;;5001281;28;20047;-74
2023/03/20 11:40:53;;;;;;;6.32;1.77;;;9.20;99.90;;;;;;5004896;28;20068;-73
2023/03/20 11:43:22;;;;;;;2.45;1.80;;;9.20;99.90;;;;;;5003593;28;20490;-74
2023/03/20 11:45:56;;;;;;;2.55;1.38;;;9.20;99.90;;;;;;5019178;28;20572;-73
2023/03/20 11:48:25;;;;;;;2.30;1.50;;;9.20;99.90;;;;;;5017308;28;20051;-73
2023/03/20 11:51:04;;;;;;;5.07;1.75;;;9.20;99.90;;;;;;5023306;28;20140;-74
2023/03/20 11:53:40;;;;;;;2.50;1.42;;;9.20;99.90;;;;;;5003391;28;20286;-74
2023/03/20 11:56:10;;;;;;;2.88;1.75;;;9.20;99.90;;;;;;5005039;28;20139;-73
2023/03/20 11:58:46;;;;;;;3.88;1.83;;;9.20;99.90;;;;;;4985551;28;20041;-74
2023/03/20 12:01:12;;;;;;;3.20;2.58;;;9.20;99.90;;;;;;4985164;28;20506;-74
2023/03/20 12:03:57;;;;;;;3.13;2.05;;;9.20;99.90;;;;;;5003738;28;20058;-73
2023/03/20 12:06:38;;;;;;;4.18;2.35;;;9.20;99.90;;;;;;5003335;28;20050;-73
2023/03/20 12:09:17;;;;;;;3.92;2.58;;;9.20;99.90;;;;;;4985476;28;20049;-73
2023/03/20 12:11:53;;;;;;;5.38;2.10;;;9.10;99.90;;;;;;5001147;28;20054;-73
2023/03/20 12:14:36;;;;;;;4.03;2.08;;;9.10;99.90;;;;;;4985499;28;20050;-74
2023/03/20 12:17:14;;;;;;;8.55;2.30;;;9.10;99.90;;;;;;4985394;28;20353;-73
2023/03/20 12:19:41;;;;;;;4.63;2.90;;;9.10;99.90;;;;;;5002098;28;20042;-73
2023/03/20 12:22:20;;;;;;;4.72;2.15;;;9.10;99.90;;;;;;4985180;28;20081;-74
2023/03/20 12:25:00;;;;;;;2.75;1.88;;;9.10;99.90;;;;;;4972838;28;20498;-73
2023/03/20 12:27:36;;;;;;;4.38;2.10;;;9.10;99.90;;;;;;5006881;28;20038;-74
2023/03/20 12:30:13;;;;;;;4.10;2.22;;;9.10;99.90;;;;;;4989251;28;20052;-74
2023/03/20 12:32:57;;;;;;;3.53;2.05;;;9.00;99.90;;;;;;4973057;28;20081;-73
2023/03/20 12:35:23;;;;;;;4.93;2.55;;;9.00;99.90;;;;;;5006545;28;20267;-73
2023/03/20 12:37:48;;;;;;;5.07;2.45;;;9.00;99.90;;;;;;5007347;28;20057;-74
2023/03/20 12:40:17;;;;;;;5.65;2.00;;;9.00;99.90;;;;;;5005590;28;20667;-73
2023/03/20 12:42:58;;;;;;;4.38;2.20;;;9.10;99.90;;;;;;5005551;28;20046;-73
2023/03/20 12:45:53;;;;;;;5.38;2.58;;;9.00;99.90;;;;;;5006314;28;20044;-74
2023/03/20 12:48:45;;;;;;;5.03;2.13;;;9.10;99.90;;;;;;5002272;28;20530;-73
2023/03/20 12:51:20;;;;;;;3.58;2.15;;;9.10;99.90;;;;;;5006352;28;20064;-74
2023/03/20 12:53:52;;;;;;;2.83;1.75;;;9.10;99.90;;;;;;5009237;28;20038;-73
2023/03/20 12:56:54;;;;;;;4.97;1.85;;;9.10;99.90;;;;;;5005766;28;20233;-73
2023/03/20 12:59:40;;;;;;;4.40;1.87;;;9.10;99.90;;;;;;4975794;28;20049;-74
2023/03/20 13:02:32;;;;;;;4.15;2.20;;;9.10;99.90;;;;;;4973696;28;20483;-72
2023/03/20 13:05:16;;;;;;;4.07;2.53;;;9.10;99.90;;;;;;5010346;28;20085;-73
2023/03/20 13:08:06;;;;;;;3.25;1.70;;;9.10;99.90;;;;;;5005588;28;20050;-73
2023/03/20 13:10:39;;;;;;;3.22;1.70;;;9.20;99.90;;;;;;5005790;28;20046;-73
2023/03/20 13:13:19;;;;;;;3.50;2.33;;;9.10;99.90;;;;;;4988436;28;20513;-73
2023/03/20 13:16:03;;;;;;;4.18;1.85;;;9.10;99.90;;;;;;4988648;28;20042;-74